createdAt,value
2023-01-19T00:04:59.682Z,98881.58
2023-01-19T00:10:03.501Z,98900.27
2023-01-19T00:15:08.453Z,98915.20
2023-01-19T00:20:12.598Z,98923.52
2023-01-19T00:25:15.789Z,98941.58
2023-01-19T00:30:19.004Z,98962.44
2023-01-19T00:35:22.417Z,98971.00
2023-01-19T00:40:26.035Z,98979.38
2023-01-19T00:45:29.359Z,98990.73
2023-01-19T00:50:33.776Z,99004.57
2023-01-19T00:55:36.877Z,99016.17
2023-01-19T01:00:40.191Z,99013.95
2023-01-19T01:05:43.400Z,99023.09
2023-01-19T01:10:46.809Z,99031.98
2023-01-19T01:15:51.676Z,99026.54
2023-01-19T01:21:05.009Z,99032.20
2023-01-19T01:26:08.225Z,99048.95
2023-01-19T01:31:11.290Z,99055.60
2023-01-19T01:36:14.579Z,99068.39
2023-01-19T01:41:17.942Z,99077.95
2023-01-19T01:46:27.022Z,99087.35
2023-01-19T01:51:37.765Z,99096.23
2023-01-19T01:56:44.658Z,99104.38
2023-01-19T02:02:06.535Z,99110.89
2023-01-19T02:07:36.350Z,99126.59
2023-01-19T02:12:58.895Z,99134.50
2023-01-19T02:18:02.520Z,99129.95
2023-01-19T02:23:13.095Z,99132.75
2023-01-19T02:28:18.059Z,99143.46
2023-01-19T02:33:21.253Z,99149.18
2023-01-19T02:38:27.232Z,99150.36
2023-01-19T02:43:32.339Z,99149.63
2023-01-19T02:48:36.308Z,99147.27
2023-01-19T02:54:13.922Z,99130.80
2023-01-19T02:59:41.807Z,99136.19
2023-01-19T03:04:54.639Z,99135.84
2023-01-19T03:10:09.927Z,99136.92
2023-01-19T03:15:27.697Z,99140.20
2023-01-19T03:20:31.295Z,99137.21
2023-01-19T03:25:40.551Z,99130.27
2023-01-19T03:30:48.210Z,99123.40
2023-01-19T03:35:57.310Z,99132.54
2023-01-19T03:41:11.265Z,99131.54
2023-01-19T03:46:17.726Z,99127.93
2023-01-19T03:51:22.391Z,99131.60
2023-01-19T03:56:26.376Z,99124.73
2023-01-19T04:01:29.709Z,99109.99
2023-01-19T04:06:33.157Z,99116.10
2023-01-19T04:11:36.351Z,99120.74
2023-01-19T04:16:39.963Z,99122.32
2023-01-19T04:21:43.274Z,99132.58
2023-01-19T04:26:46.891Z,99138.80
2023-01-19T04:31:49.890Z,99144.24
2023-01-19T04:36:53.204Z,99155.68
2023-01-19T04:41:57.779Z,99176.11
2023-01-19T04:47:01.768Z,99176.14
2023-01-19T04:52:05.316Z,99174.66
2023-01-19T04:57:08.492Z,99181.90
2023-01-19T05:02:12.081Z,99191.69
2023-01-19T05:07:15.317Z,99189.77
2023-01-19T05:12:18.316Z,99185.69
2023-01-19T05:17:21.425Z,99189.23
2023-01-19T05:22:24.942Z,99191.33
2023-01-19T05:27:28.358Z,99197.29
2023-01-19T05:32:31.578Z,99203.95
2023-01-19T05:37:34.667Z,99208.33
2023-01-19T05:42:37.979Z,99215.30
2023-01-19T05:47:40.988Z,99229.59
2023-01-19T05:52:44.086Z,99245.25
2023-01-19T05:57:47.499Z,99255.84
2023-01-19T06:02:51.027Z,99261.05
2023-01-19T06:07:56.676Z,99272.28
2023-01-19T06:13:00.037Z,99287.72
2023-01-19T06:18:03.195Z,99295.44
2023-01-19T06:23:06.817Z,99298.86
2023-01-19T06:28:09.944Z,99307.91
2023-01-19T06:33:13.132Z,99321.56
2023-01-19T06:38:18.767Z,99326.75
2023-01-19T06:43:22.305Z,99331.39
2023-01-19T06:48:25.419Z,99338.04
2023-01-19T06:53:30.423Z,99338.57
2023-01-19T06:58:35.010Z,99337.22
2023-01-19T07:03:38.816Z,99345.09
2023-01-19T07:08:41.825Z,99357.27
2023-01-19T07:13:46.966Z,99366.67
2023-01-19T07:18:50.598Z,99380.11
2023-01-19T07:23:54.028Z,99392.95
2023-01-19T07:28:57.124Z,99409.05
2023-01-19T07:34:00.639Z,99423.70
2023-01-19T07:39:03.738Z,99426.42
2023-01-19T07:44:06.847Z,99425.91
2023-01-19T07:49:09.957Z,99424.63
2023-01-19T07:54:13.159Z,99433.91
2023-01-19T07:59:16.162Z,99427.30
2023-01-19T08:04:19.320Z,99428.07
2023-01-19T08:09:23.092Z,99434.96
2023-01-19T08:14:26.316Z,99436.35
2023-01-19T08:19:30.028Z,99436.48
2023-01-19T08:24:32.945Z,99434.72
2023-01-19T08:29:36.344Z,99435.58
2023-01-19T08:34:39.348Z,99433.30
2023-01-19T08:39:42.446Z,99437.23
2023-01-19T08:44:57.240Z,99443.55
2023-01-19T08:50:01.054Z,99454.84
2023-01-19T08:55:05.329Z,99468.64
2023-01-19T09:00:10.650Z,99465.28
2023-01-19T09:05:14.090Z,99467.09
2023-01-19T09:10:18.072Z,99475.35
2023-01-19T09:15:21.910Z,99481.98
2023-01-19T09:20:25.101Z,99485.52
2023-01-19T09:25:28.540Z,99482.46
2023-01-19T09:30:33.531Z,99476.19
2023-01-19T09:35:37.284Z,99476.49
2023-01-19T09:40:45.311Z,99480.67
2023-01-19T09:46:12.344Z,99481.21
2023-01-19T09:51:26.442Z,99480.96
2023-01-19T09:56:29.957Z,99483.47
2023-01-19T10:01:35.047Z,99481.02
2023-01-19T10:06:38.823Z,99476.55
2023-01-19T10:11:53.153Z,99479.61
2023-01-19T10:17:15.059Z,99482.97
2023-01-19T10:22:21.533Z,99488.80
2023-01-19T10:27:27.614Z,99490.04
2023-01-19T10:32:33.473Z,99491.15
2023-01-19T10:37:42.184Z,99488.25
2023-01-19T10:42:45.313Z,99486.77
2023-01-19T10:47:49.245Z,99493.50
2023-01-19T10:52:54.201Z,99495.44
2023-01-19T10:57:58.343Z,99486.84
2023-01-19T11:03:01.759Z,99476.27
2023-01-19T11:08:22.131Z,99464.45
2023-01-19T11:13:25.751Z,99453.57
2023-01-19T11:18:30.906Z,99460.88
2023-01-19T11:23:43.071Z,99460.81
2023-01-19T11:28:47.977Z,99461.64
2023-01-19T11:33:52.304Z,99457.21
2023-01-19T11:38:57.362Z,99461.08
2023-01-19T11:44:03.333Z,99462.83
2023-01-19T11:49:08.893Z,99458.44
2023-01-19T11:54:24.387Z,99454.80
2023-01-19T11:59:27.695Z,99452.45
2023-01-19T12:04:33.872Z,99453.80
2023-01-19T12:09:43.227Z,99453.15
2023-01-19T12:15:07.650Z,99454.95
2023-01-19T12:20:19.231Z,99452.96
2023-01-19T12:25:41.083Z,99442.29
2023-01-19T12:30:44.555Z,99442.52
2023-01-19T12:36:02.491Z,99447.70
2023-01-19T12:41:26.183Z,99446.30
2023-01-19T12:46:30.926Z,99444.08
2023-01-19T12:51:34.191Z,99438.29
2023-01-19T12:56:38.734Z,99436.80
2023-01-19T13:01:41.962Z,99441.40
2023-01-19T13:06:48.547Z,99439.31
2023-01-19T13:12:14.960Z,99440.48
2023-01-19T13:17:30.988Z,99441.94
2023-01-19T13:22:49.771Z,99440.23
2023-01-19T13:27:52.856Z,99444.06
2023-01-19T13:32:57.804Z,99440.76
2023-01-19T13:38:01.545Z,99439.59
2023-01-19T13:43:06.883Z,99444.91
2023-01-19T13:48:15.209Z,99440.95
2023-01-19T13:53:19.443Z,99442.38
2023-01-19T13:58:23.677Z,99446.92
2023-01-19T14:03:27.063Z,99447.95
2023-01-19T14:08:33.061Z,99454.02
2023-01-19T14:13:43.354Z,99463.69
2023-01-19T14:18:46.849Z,99475.27
2023-01-19T14:24:09.235Z,99475.11
2023-01-19T14:29:12.213Z,99473.95
2023-01-19T14:34:35.279Z,99480.48
2023-01-19T14:39:38.282Z,99488.61
2023-01-19T14:44:41.592Z,99491.39
2023-01-19T14:49:47.026Z,99493.82
2023-01-19T14:54:50.873Z,99492.98
2023-01-19T14:59:54.082Z,99495.29
2023-01-19T15:04:58.214Z,99500.98
2023-01-19T15:10:04.398Z,99504.73
2023-01-19T15:15:14.015Z,99508.41
2023-01-19T15:20:19.964Z,99504.93
2023-01-19T15:25:26.576Z,99502.17
2023-01-19T15:30:33.861Z,99502.15
2023-01-19T15:35:37.044Z,99504.52
2023-01-19T15:40:40.432Z,99507.89
2023-01-19T15:46:03.878Z,99513.52
2023-01-19T15:51:11.750Z,99517.55
2023-01-19T15:56:16.384Z,99525.23
2023-01-19T16:01:21.505Z,99534.68
2023-01-19T16:06:24.833Z,99537.02
2023-01-19T16:11:30.860Z,99534.69
2023-01-19T16:16:34.275Z,99541.73
2023-01-19T16:21:38.799Z,99543.94
2023-01-19T16:26:42.073Z,99546.01
2023-01-19T16:31:45.830Z,99547.09
2023-01-19T16:36:49.200Z,99546.97
2023-01-19T16:41:52.518Z,99545.11
2023-01-19T16:46:56.081Z,99548.69
2023-01-19T16:52:00.359Z,99549.11
2023-01-19T16:57:04.179Z,99546.75
2023-01-19T17:02:08.205Z,99548.95
2023-01-19T17:07:12.163Z,99550.41
2023-01-19T17:12:15.648Z,99551.52
2023-01-19T17:17:18.961Z,99548.96
2023-01-19T17:22:22.369Z,99548.86
2023-01-19T17:27:26.092Z,99548.36
2023-01-19T17:32:30.835Z,99550.34
2023-01-19T17:37:34.966Z,99552.91
2023-01-19T17:42:42.175Z,99552.08
2023-01-19T17:47:48.548Z,99555.46
2023-01-19T17:52:53.399Z,99553.21
2023-01-19T17:57:57.770Z,99551.81
2023-01-19T18:03:03.001Z,99550.02
2023-01-19T18:08:06.303Z,99550.16
2023-01-19T18:13:09.713Z,99545.87
2023-01-19T18:18:12.914Z,99540.63
2023-01-19T18:23:16.440Z,99540.27
2023-01-19T18:28:19.740Z,99538.47
2023-01-19T18:33:23.253Z,99538.88
2023-01-19T18:38:26.673Z,99537.89
2023-01-19T18:43:29.876Z,99538.87
2023-01-19T18:48:33.292Z,99538.22
2023-01-19T18:53:37.015Z,99539.05
2023-01-19T18:58:40.626Z,99542.27
2023-01-19T19:03:44.551Z,99541.02
2023-01-19T19:08:48.579Z,99537.23
2023-01-19T19:13:56.301Z,99540.23
2023-01-19T19:18:59.610Z,99547.42
2023-01-19T19:24:03.440Z,99551.98
2023-01-19T19:29:06.636Z,99556.63
2023-01-19T19:34:12.928Z,99554.11
2023-01-19T19:39:16.121Z,99549.80
2023-01-19T19:44:19.432Z,99546.99
2023-01-19T19:49:23.868Z,99550.20
2023-01-19T19:54:26.799Z,99558.64
2023-01-19T19:59:30.291Z,99561.73
2023-01-19T20:04:34.232Z,99566.98
2023-01-19T20:09:38.341Z,99567.87
2023-01-19T20:14:41.653Z,99571.41
2023-01-19T20:19:46.806Z,99563.89
2023-01-19T20:24:51.750Z,99560.70
2023-01-19T20:29:58.581Z,99563.23
2023-01-19T20:35:02.063Z,99566.53
2023-01-19T20:40:13.472Z,99567.48
2023-01-19T20:45:17.797Z,99568.37
2023-01-19T20:50:22.642Z,99567.73
2023-01-19T20:55:26.059Z,99571.15
2023-01-19T21:00:29.371Z,99571.01
2023-01-19T21:05:32.783Z,99569.48
2023-01-19T21:10:36.188Z,99584.23
2023-01-19T21:15:39.247Z,99589.07
2023-01-19T21:20:42.605Z,99591.55
2023-01-19T21:25:49.709Z,99587.79
2023-01-19T21:30:53.876Z,99592.71
2023-01-19T21:35:57.539Z,99600.51
2023-01-19T21:41:05.293Z,99603.53
2023-01-19T21:46:18.924Z,99610.48
2023-01-19T21:51:22.337Z,99618.97
2023-01-19T21:56:25.861Z,99625.52
2023-01-19T22:01:29.551Z,99630.08
2023-01-19T22:06:32.790Z,99626.23
2023-01-19T22:11:36.199Z,99628.52
2023-01-19T22:16:39.450Z,99630.03
2023-01-19T22:21:42.515Z,99632.89
2023-01-19T22:26:45.612Z,99639.13
2023-01-19T22:31:52.064Z,99641.10
2023-01-19T22:36:55.319Z,99641.63
2023-01-19T22:41:58.629Z,99642.26
2023-01-19T22:47:01.822Z,99642.27
2023-01-19T22:52:05.134Z,99641.86
2023-01-19T22:57:11.517Z,99642.56
2023-01-19T23:02:14.903Z,99650.66
2023-01-19T23:07:17.931Z,99663.91
2023-01-19T23:12:20.873Z,99671.75
2023-01-19T23:17:23.756Z,99676.65
2023-01-19T23:22:26.839Z,99684.06
2023-01-19T23:27:29.724Z,99688.69
2023-01-19T23:32:33.251Z,99689.73
2023-01-19T23:37:36.155Z,99695.10
2023-01-19T23:42:39.264Z,99699.65
2023-01-19T23:47:43.595Z,99706.80
2023-01-19T23:52:46.699Z,99711.99
2023-01-19T23:57:49.599Z,99709.80
